Startpagina
METAR-TAF:

METAR-TAF

Vliegvelden :

Fort-de-France, Martinique

breedte: 14-36N, lengte: 061-00W, hoogte: 5 m

Actueel weer

Dit bericht is 14 minuten geleden gemaakt, om 03:30 UTC
Wind 3 kt uit het noordoosten, variërend tussen het noorden en het oosten
Temperatuur 26°C
Vochtigheid 74%
Druk 1013 hPa
Zicht 10 km of meer
Verspreide wolken op 3600 ft
Verspreide wolken op 4700 ft
Geheel bewolkt op 6000 ft

METAR: TFFF 120330Z AUTO 05003KT 010V080 9999 SCT036 SCT047 OVC060 26/21 Q1013 TEMPO 4500 SHRA

Tijdstip: 23:44 (03:44 UTC)

Verwachting

Dit bericht is 10 uur en het 44 minuten geleden gemaakt, om 17:00 UTC
Verwachting geldig van 11 om 18 UTC tot 12 om 18 UTC
Wind 10 kt uit het oosten
Zicht 10 km of meer
Gebroken wolken op 3500 ft
Gebroken wolken op 6000 ft
Kans 30% :
Tijdelijke
van 12 om 03 UTC tot 12 om 15 UTC
Zicht: 4500 m
regenbuien

TAF: TFFF 111700Z 1118/1218 08010KT 9999 BKN035 BKN060 PROB30 TEMPO 1203/1215 4500 SHRA

Waarnemingen en weersverwachtingen van meer dan 4000 vliegvelden (METAR en TAF).

De beschikbare stations zijn de gele en rode punten op de kaart.

Ga met uw muis naar het station om de naam te zien.

Klik dan om waarnemingen en weersverwachtingen te zien.

kaart wijzigen: klik op de groene knoppen met een zwart kruis om in te zoomen, op de groene knop met een streepje om uit te zoomen of op de groene pijlen voor aangrenzende kaarten.


METAR-TAF: